Time;durP1;ratioP1;P1;durP2;ratioP2;P2;SDS_P1;SDS_P2;PMS_P1;PMS_P2;Temp;Humidity;BMP_temperature;BMP_pressure;BME280_temperature;BME280_humidity;BME280_pressure;Samples;Min_cycle;Max_cycle;Signal;HPM_P1;HPM_P2
2023/07/13 00:01:43;;;;;;;19.67;12.35;;;15.00;98.80;;;;;;5003548;28;20033;-70
2023/07/13 00:04:08;;;;;;;24.83;13.20;;;15.00;99.00;;;;;;5010238;28;20029;-70
2023/07/13 00:06:35;;;;;;;17.85;12.25;;;15.00;98.90;;;;;;5011193;28;20113;-70
2023/07/13 00:09:01;;;;;;;23.95;13.32;;;15.00;99.00;;;;;;5017027;28;20095;-70
2023/07/13 00:11:26;;;;;;;24.17;14.02;;;15.00;99.10;;;;;;5011759;28;20040;-70
2023/07/13 00:13:52;;;;;;;20.80;14.10;;;15.00;99.10;;;;;;5005431;28;20026;-70
2023/07/13 00:16:18;;;;;;;21.25;15.23;;;15.00;99.20;;;;;;5008413;28;20029;-70
2023/07/13 00:18:44;;;;;;;20.42;15.18;;;15.00;99.30;;;;;;5011925;28;20046;-71
2023/07/13 00:21:10;;;;;;;26.52;16.20;;;15.00;99.40;;;;;;5015250;28;20030;-69
2023/07/13 00:23:39;;;;;;;23.55;14.98;;;15.00;99.20;;;;;;5000820;28;20040;-71
2023/07/13 00:26:07;;;;;;;29.48;16.58;;;14.90;99.30;;;;;;5005759;28;20045;-69
2023/07/13 00:28:33;;;;;;;23.52;15.23;;;14.90;99.30;;;;;;5003556;28;20050;-70
2023/07/13 00:30:58;;;;;;;27.27;15.90;;;14.90;99.30;;;;;;5002935;28;20135;-70
2023/07/13 00:33:24;;;;;;;27.65;15.57;;;14.80;99.40;;;;;;5000846;28;20030;-69
2023/07/13 00:35:50;;;;;;;32.58;17.40;;;14.80;99.30;;;;;;5002072;28;20038;-71
2023/07/13 00:38:16;;;;;;;27.40;16.08;;;14.70;99.30;;;;;;5006012;28;20072;-71
2023/07/13 00:40:41;;;;;;;20.88;15.50;;;14.80;99.30;;;;;;5005299;28;20038;-71
2023/07/13 00:43:19;;;;;;;28.35;15.13;;;14.70;99.30;;;;;;5002985;28;20034;-70
2023/07/13 00:45:45;;;;;;;24.33;14.98;;;14.70;99.30;;;;;;4996121;28;20506;-70
2023/07/13 00:48:18;;;;;;;22.63;16.25;;;14.60;99.40;;;;;;5005424;28;20217;-71
2023/07/13 00:50:46;;;;;;;29.20;15.32;;;14.60;99.30;;;;;;4999720;28;20376;-71
2023/07/13 00:53:12;;;;;;;22.73;15.38;;;14.60;99.30;;;;;;5003896;28;20069;-70
2023/07/13 00:55:38;;;;;;;31.40;15.95;;;14.60;99.30;;;;;;4999706;28;20076;-70
2023/07/13 00:58:06;;;;;;;26.10;15.75;;;14.60;99.30;;;;;;5003301;28;20092;-70
2023/07/13 01:00:35;;;;;;;29.42;17.20;;;14.60;99.30;;;;;;5002555;28;20019;-72
2023/07/13 01:03:04;;;;;;;30.45;16.48;;;14.50;99.10;;;;;;5004211;28;20049;-70
2023/07/13 01:05:31;;;;;;;30.85;17.00;;;14.50;99.10;;;;;;5003548;28;20025;-70
2023/07/13 01:07:58;;;;;;;29.85;17.52;;;14.50;99.20;;;;;;5004832;28;20350;-70
2023/07/13 01:10:25;;;;;;;26.95;17.33;;;14.50;99.20;;;;;;5011741;28;20108;-70
2023/07/13 01:12:52;;;;;;;31.35;17.92;;;14.40;99.10;;;;;;5009024;28;20410;-71
2023/07/13 01:15:36;;;;;;;29.23;18.38;;;14.40;99.20;;;;;;5010167;28;20175;-69
2023/07/13 01:18:03;;;;;;;24.58;16.85;;;14.40;99.20;;;;;;5012130;28;20030;-70
2023/07/13 01:20:29;;;;;;;34.10;17.25;;;14.30;99.10;;;;;;5008137;28;20091;-72
2023/07/13 01:22:54;;;;;;;28.17;17.63;;;14.30;99.30;;;;;;5007989;28;20462;-70
2023/07/13 01:25:20;;;;;;;33.17;18.33;;;14.20;99.20;;;;;;5009442;28;20090;-69
2023/07/13 01:27:46;;;;;;;30.15;18.35;;;14.10;99.20;;;;;;5009944;28;20049;-69
2023/07/13 01:30:12;;;;;;;29.73;19.08;;;14.20;99.30;;;;;;5005792;28;20018;-70
2023/07/13 01:32:39;;;;;;;30.35;20.08;;;14.10;99.30;;;;;;5009886;28;20030;-69
2023/07/13 01:35:05;;;;;;;30.88;18.85;;;14.10;99.30;;;;;;5012294;28;20038;-68
2023/07/13 01:37:33;;;;;;;29.83;18.73;;;14.10;99.30;;;;;;5007870;28;20081;-68
2023/07/13 01:39:58;;;;;;;33.47;19.20;;;14.10;99.30;;;;;;5002377;28;20105;-69
2023/07/13 01:42:24;;;;;;;29.08;18.65;;;14.10;99.30;;;;;;5006692;28;20056;-69
2023/07/13 01:44:49;;;;;;;30.92;19.88;;;14.00;99.30;;;;;;5005188;28;20327;-70
2023/07/13 01:47:15;;;;;;;35.15;19.27;;;14.00;99.40;;;;;;5005812;28;20132;-68
2023/07/13 01:49:41;;;;;;;37.45;19.63;;;14.00;99.40;;;;;;5009587;28;20729;-72
2023/07/13 01:52:07;;;;;;;30.45;19.58;;;14.00;99.30;;;;;;5004769;28;20218;-69
2023/07/13 01:54:33;;;;;;;29.83;18.30;;;14.00;99.40;;;;;;5008113;28;20137;-69
2023/07/13 01:56:59;;;;;;;28.75;18.88;;;13.90;99.40;;;;;;4999003;28;20180;-70
2023/07/13 01:59:25;;;;;;;31.23;18.13;;;13.90;99.40;;;;;;5009736;28;20496;-69
2023/07/13 02:01:51;;;;;;;28.10;18.10;;;13.90;99.40;;;;;;5002263;28;20048;-70
2023/07/13 02:04:16;;;;;;;34.78;18.60;;;13.90;99.30;;;;;;5005682;28;20034;-69
2023/07/13 02:06:41;;;;;;;32.50;19.67;;;13.80;99.20;;;;;;4999740;28;20114;-70
2023/07/13 02:09:07;;;;;;;32.40;18.58;;;13.80;99.30;;;;;;5004383;28;20041;-69
2023/07/13 02:11:33;;;;;;;30.25;18.60;;;13.70;99.20;;;;;;5003341;28;20520;-69
2023/07/13 02:14:02;;;;;;;30.52;19.13;;;13.70;99.20;;;;;;5003373;28;20033;-68
2023/07/13 02:16:31;;;;;;;33.67;18.05;;;13.60;99.20;;;;;;5007486;28;20033;-70
2023/07/13 02:18:57;;;;;;;30.45;18.08;;;13.70;99.40;;;;;;5009288;28;20050;-70
2023/07/13 02:21:23;;;;;;;32.72;18.38;;;13.70;99.30;;;;;;5005048;28;20055;-68
2023/07/13 02:23:49;;;;;;;32.00;19.05;;;13.60;99.30;;;;;;5007187;28;20167;-69
2023/07/13 02:26:15;;;;;;;31.50;18.45;;;13.60;99.30;;;;;;5004664;28;20048;-69
2023/07/13 02:28:40;;;;;;;29.02;18.27;;;13.60;99.20;;;;;;5000896;28;20037;-70
2023/07/13 02:31:12;;;;;;;30.60;18.08;;;13.60;99.40;;;;;;5009805;28;20056;-68
2023/07/13 02:33:37;;;;;;;29.15;18.83;;;13.50;99.20;;;;;;5012506;28;20168;-70
2023/07/13 02:36:05;;;;;;;29.77;18.95;;;13.50;99.20;;;;;;5004407;28;20077;-69
2023/07/13 02:38:33;;;;;;;29.77;18.48;;;13.40;99.20;;;;;;5006832;28;20026;-70
2023/07/13 02:40:59;;;;;;;32.10;18.00;;;13.40;99.20;;;;;;5001762;28;22012;-70
2023/07/13 02:43:25;;;;;;;30.75;18.02;;;13.30;99.20;;;;;;5003740;28;20030;-68
2023/07/13 02:45:50;;;;;;;30.08;18.02;;;13.30;99.30;;;;;;5005571;28;20454;-69
2023/07/13 02:48:16;;;;;;;33.13;19.23;;;13.30;99.30;;;;;;5008257;28;20375;-68
2023/07/13 02:50:41;;;;;;;33.22;19.60;;;13.30;99.40;;;;;;5004244;28;20036;-70
2023/07/13 02:53:07;;;;;;;28.10;17.77;;;13.30;99.30;;;;;;5005642;28;20014;-70
2023/07/13 02:55:32;;;;;;;38.10;19.65;;;13.30;99.50;;;;;;5003582;28;20038;-69
2023/07/13 02:57:58;;;;;;;34.55;19.30;;;13.30;99.40;;;;;;5002400;28;20034;-69
2023/07/13 03:00:24;;;;;;;35.70;19.75;;;13.30;99.40;;;;;;4994998;28;20058;-69
2023/07/13 03:02:49;;;;;;;33.80;19.60;;;13.20;99.30;;;;;;5003146;28;20486;-68
2023/07/13 03:05:16;;;;;;;35.92;20.23;;;13.20;99.40;;;;;;5006156;28;20128;-69
2023/07/13 03:07:42;;;;;;;39.92;19.33;;;13.20;99.40;;;;;;5004938;28;20056;-69
2023/07/13 03:10:09;;;;;;;38.33;19.15;;;13.20;99.40;;;;;;5010658;28;20040;-68
2023/07/13 03:12:34;;;;;;;33.95;19.25;;;13.20;99.40;;;;;;5008622;28;20212;-68
2023/07/13 03:15:00;;;;;;;32.25;19.58;;;13.30;99.50;;;;;;5008961;28;20144;-69
2023/07/13 03:17:25;;;;;;;35.13;19.80;;;13.20;99.40;;;;;;5013341;28;20223;-69
2023/07/13 03:19:51;;;;;;;34.45;19.52;;;13.30;99.40;;;;;;5005434;28;20065;-69
2023/07/13 03:22:18;;;;;;;41.30;19.42;;;13.20;99.30;;;;;;5005054;28;20183;-68
2023/07/13 03:24:44;;;;;;;34.08;19.95;;;13.20;99.40;;;;;;5007207;28;20103;-68
2023/07/13 03:27:09;;;;;;;33.83;19.70;;;13.20;99.50;;;;;;5007885;28;20113;-69
2023/07/13 03:29:35;;;;;;;30.48;19.27;;;13.20;99.50;;;;;;5001784;28;20057;-68
2023/07/13 03:32:00;;;;;;;37.10;20.98;;;13.20;99.40;;;;;;5003559;28;20533;-70
2023/07/13 03:34:26;;;;;;;39.92;21.45;;;13.20;99.40;;;;;;5012267;28;20049;-71
2023/07/13 03:36:56;;;;;;;33.95;20.00;;;13.20;99.50;;;;;;5000331;28;20050;-68
2023/07/13 03:39:21;;;;;;;39.33;22.00;;;13.30;99.40;;;;;;5008169;28;20404;-70
2023/07/13 03:41:47;;;;;;;45.75;22.17;;;13.30;99.50;;;;;;5005444;28;20061;-68
2023/07/13 03:44:12;;;;;;;38.40;22.15;;;13.30;99.50;;;;;;5005559;28;20076;-70
2023/07/13 03:46:38;;;;;;;32.55;21.33;;;13.30;99.50;;;;;;5005012;28;20076;-68
2023/07/13 03:49:05;;;;;;;42.38;22.52;;;13.30;99.50;;;;;;5007259;28;20034;-68
2023/07/13 03:51:30;;;;;;;41.05;23.52;;;13.30;99.50;;;;;;5004250;28;20699;-69
2023/07/13 03:53:56;;;;;;;41.80;24.02;;;13.30;99.60;;;;;;5005916;28;20307;-68
2023/07/13 03:56:22;;;;;;;44.90;24.75;;;13.40;99.60;;;;;;4996628;28;20108;-68
2023/07/13 03:58:50;;;;;;;39.08;24.02;;;13.40;99.60;;;;;;5003119;28;20423;-73
2023/07/13 04:01:16;;;;;;;41.53;24.40;;;13.50;99.60;;;;;;5004018;28;20558;-69
2023/07/13 04:03:42;;;;;;;47.33;24.98;;;13.50;99.60;;;;;;5007368;28;20061;-69
2023/07/13 04:06:20;;;;;;;42.90;24.80;;;13.50;99.60;;;;;;4999450;28;20578;-68
2023/07/13 04:08:47;;;;;;;45.78;25.50;;;13.50;99.60;;;;;;5001061;28;20028;-69
2023/07/13 04:11:13;;;;;;;42.70;25.23;;;13.60;99.60;;;;;;4998979;28;20044;-70
2023/07/13 04:13:38;;;;;;;41.15;25.17;;;13.60;99.60;;;;;;5001382;28;20033;-69
2023/07/13 04:16:04;;;;;;;46.53;26.08;;;13.60;99.50;;;;;;5002895;28;20041;-68
2023/07/13 04:18:29;;;;;;;53.53;26.00;;;13.60;99.50;;;;;;5016218;28;20213;-69
2023/07/13 04:20:55;;;;;;;50.25;25.38;;;13.60;99.50;;;;;;4999169;28;20042;-69
2023/07/13 04:23:20;;;;;;;41.60;24.88;;;13.70;99.50;;;;;;5005767;28;20112;-69
2023/07/13 04:25:49;;;;;;;41.00;24.35;;;13.60;99.40;;;;;;4994871;28;20044;-70
2023/07/13 04:28:15;;;;;;;42.60;25.30;;;13.70;99.40;;;;;;4995540;28;20132;-65
2023/07/13 04:30:40;;;;;;;51.63;25.67;;;13.70;99.30;;;;;;5004193;28;20065;-70
2023/07/13 04:33:06;;;;;;;47.35;25.17;;;13.70;99.30;;;;;;5006322;28;20120;-64
2023/07/13 04:35:31;;;;;;;39.03;24.17;;;13.80;99.30;;;;;;5007795;28;20110;-65
2023/07/13 04:37:57;;;;;;;46.92;25.50;;;13.90;99.30;;;;;;5005901;28;20030;-65
2023/07/13 04:40:22;;;;;;;46.95;23.90;;;14.00;99.30;;;;;;5002520;28;20407;-65
2023/07/13 04:42:48;;;;;;;50.33;24.48;;;14.00;99.20;;;;;;5002020;28;20129;-64
2023/07/13 04:45:14;;;;;;;39.05;22.48;;;14.10;99.10;;;;;;5001871;28;20030;-66
2023/07/13 04:47:40;;;;;;;39.38;21.95;;;14.20;99.00;;;;;;5004062;28;20432;-65
2023/07/13 04:50:08;;;;;;;37.45;22.48;;;14.30;98.90;;;;;;5002984;28;20030;-66
2023/07/13 04:52:34;;;;;;;44.92;21.92;;;14.40;98.80;;;;;;5007160;28;20026;-66
2023/07/13 04:55:00;;;;;;;38.25;18.73;;;14.50;98.40;;;;;;4997362;28;20385;-64
2023/07/13 04:57:26;;;;;;;34.42;18.67;;;14.60;97.90;;;;;;4999300;28;20354;-66
2023/07/13 04:59:52;;;;;;;34.97;16.58;;;14.70;97.60;;;;;;4997754;28;20216;-68
2023/07/13 05:02:19;;;;;;;33.60;16.67;;;14.80;97.20;;;;;;4996386;28;20096;-65
2023/07/13 05:04:49;;;;;;;31.90;14.93;;;14.90;97.30;;;;;;5005495;28;20037;-66
2023/07/13 05:07:15;;;;;;;25.13;13.50;;;14.90;97.10;;;;;;5005379;28;20459;-65
2023/07/13 05:09:40;;;;;;;26.55;12.55;;;15.00;96.90;;;;;;5006117;28;20104;-66
2023/07/13 05:12:08;;;;;;;25.73;11.23;;;15.00;96.80;;;;;;5003392;28;20037;-65
2023/07/13 05:14:33;;;;;;;25.25;11.07;;;15.00;96.60;;;;;;5008661;28;20033;-65
2023/07/13 05:16:59;;;;;;;21.00;10.98;;;15.00;96.50;;;;;;5004088;28;20029;-65
2023/07/13 05:19:25;;;;;;;17.13;8.90;;;15.00;96.70;;;;;;5001274;28;20145;-66
2023/07/13 05:21:50;;;;;;;18.95;8.77;;;15.00;96.40;;;;;;5005097;28;20034;-65
2023/07/13 05:24:16;;;;;;;30.30;8.93;;;15.10;96.50;;;;;;5000558;28;20037;-65
2023/07/13 05:26:41;;;;;;;16.83;6.90;;;15.10;96.50;;;;;;5003654;28;20413;-65
2023/07/13 05:29:07;;;;;;;20.35;6.65;;;15.10;96.40;;;;;;5006927;28;20034;-65
2023/07/13 05:31:32;;;;;;;16.98;6.45;;;15.30;96.30;;;;;;5009062;28;20026;-65
2023/07/13 05:33:58;;;;;;;15.52;6.15;;;15.30;96.10;;;;;;4994517;28;20040;-65
2023/07/13 05:36:23;;;;;;;12.10;6.05;;;15.30;96.00;;;;;;5006937;28;20045;-65
2023/07/13 05:38:48;;;;;;;19.45;4.88;;;15.40;95.80;;;;;;5007792;28;20322;-65
2023/07/13 05:41:14;;;;;;;13.93;4.80;;;15.40;95.70;;;;;;5002762;28;20034;-65
2023/07/13 05:43:39;;;;;;;16.33;4.45;;;15.40;95.40;;;;;;5001687;28;20340;-65
2023/07/13 05:46:05;;;;;;;10.18;4.60;;;15.50;95.50;;;;;;5002812;28;20129;-65
2023/07/13 05:48:30;;;;;;;13.05;4.68;;;15.50;95.40;;;;;;5003930;28;20521;-66
2023/07/13 05:50:56;;;;;;;9.00;3.95;;;15.50;95.20;;;;;;5002251;28;20040;-65
2023/07/13 05:53:21;;;;;;;15.80;4.20;;;15.70;95.40;;;;;;5005429;28;20117;-65
2023/07/13 05:55:49;;;;;;;17.17;4.10;;;15.80;95.30;;;;;;5006494;28;20315;-67
2023/07/13 05:58:17;;;;;;;13.57;4.22;;;15.90;95.10;;;;;;5004690;28;20129;-65
2023/07/13 06:00:42;;;;;;;17.92;3.88;;;16.00;94.90;;;;;;5003293;28;20462;-65
2023/07/13 06:03:08;;;;;;;11.10;3.60;;;15.90;94.30;;;;;;5005796;28;20038;-68
2023/07/13 06:05:35;;;;;;;12.55;3.60;;;16.00;94.30;;;;;;5007018;28;20555;-65
2023/07/13 06:08:01;;;;;;;10.85;3.15;;;16.10;94.10;;;;;;5006464;28;20026;-64
2023/07/13 06:10:27;;;;;;;19.48;3.67;;;16.30;94.10;;;;;;5000503;28;20026;-63
2023/07/13 06:12:52;;;;;;;13.75;3.75;;;16.50;93.40;;;;;;5002151;28;20447;-64
2023/07/13 06:15:18;;;;;;;12.90;3.72;;;16.50;93.10;;;;;;5002085;28;20156;-63
2023/07/13 06:17:43;;;;;;;14.15;3.30;;;16.80;93.20;;;;;;5009358;28;20462;-63
2023/07/13 06:20:09;;;;;;;11.77;3.15;;;16.90;93.20;;;;;;5007083;28;20658;-64
2023/07/13 06:22:35;;;;;;;7.90;3.05;;;16.70;92.30;;;;;;5007712;28;20041;-63
2023/07/13 06:25:00;;;;;;;13.45;3.20;;;16.70;91.50;;;;;;5006191;28;20041;-65
2023/07/13 06:27:26;;;;;;;10.45;3.28;;;16.70;91.70;;;;;;5012784;28;20033;-63
2023/07/13 06:29:51;;;;;;;13.35;3.45;;;16.90;92.00;;;;;;5003535;28;20034;-66
2023/07/13 06:32:17;;;;;;;15.55;3.50;;;17.00;91.40;;;;;;5004845;28;20135;-65
2023/07/13 06:34:42;;;;;;;9.25;2.88;;;17.00;91.70;;;;;;5006796;28;20326;-67
2023/07/13 06:37:09;;;;;;;11.60;3.08;;;17.10;90.50;;;;;;5017890;28;20095;-63
2023/07/13 06:39:34;;;;;;;12.85;3.50;;;17.20;90.60;;;;;;5007171;28;20447;-64
2023/07/13 06:42:00;;;;;;;12.95;3.70;;;17.00;90.50;;;;;;5010395;28;20056;-63
2023/07/13 06:44:25;;;;;;;13.75;3.33;;;17.10;90.40;;;;;;5009498;28;20067;-69
2023/07/13 06:46:51;;;;;;;13.88;3.45;;;17.20;90.60;;;;;;5004109;28;20026;-67
2023/07/13 06:49:16;;;;;;;15.20;3.58;;;17.00;89.90;;;;;;5008275;28;20389;-64
2023/07/13 06:51:42;;;;;;;10.73;2.78;;;17.30;90.30;;;;;;5005933;28;20056;-64
2023/07/13 06:54:07;;;;;;;14.00;3.35;;;17.40;90.00;;;;;;5002471;28;20025;-63
2023/07/13 06:56:33;;;;;;;18.30;3.20;;;17.40;89.10;;;;;;5005690;28;20042;-65
2023/07/13 06:58:58;;;;;;;15.50;3.70;;;17.60;89.50;;;;;;5001599;28;20025;-63
2023/07/13 07:01:24;;;;;;;15.63;3.13;;;17.70;88.90;;;;;;5007625;28;20080;-65
2023/07/13 07:03:49;;;;;;;10.98;3.28;;;17.80;89.20;;;;;;5005732;28;20075;-68
2023/07/13 07:06:20;;;;;;;11.73;3.58;;;18.10;89.40;;;;;;5002011;28;20113;-64
2023/07/13 07:08:46;;;;;;;16.58;4.20;;;18.30;88.50;;;;;;5005364;28;20062;-64
2023/07/13 07:11:19;;;;;;;14.98;3.35;;;18.30;88.90;;;;;;5005650;28;20490;-67
2023/07/13 07:13:44;;;;;;;13.85;3.45;;;18.20;87.00;;;;;;5000250;28;20041;-65
2023/07/13 07:16:10;;;;;;;14.57;3.00;;;18.40;87.60;;;;;;5006377;28;20064;-65
2023/07/13 07:18:36;;;;;;;17.85;3.78;;;18.40;88.00;;;;;;5008776;28;20176;-64
2023/07/13 07:21:02;;;;;;;14.57;3.33;;;18.30;87.80;;;;;;5003799;28;20101;-64
2023/07/13 07:23:27;;;;;;;14.63;3.00;;;18.30;87.20;;;;;;5004978;28;20025;-64
2023/07/13 07:25:53;;;;;;;13.57;3.40;;;18.30;88.00;;;;;;5003238;28;20029;-65
2023/07/13 07:28:19;;;;;;;11.75;3.53;;;18.40;87.20;;;;;;5004572;28;20500;-66
2023/07/13 07:30:45;;;;;;;12.93;3.22;;;18.50;86.60;;;;;;5006773;28;20041;-64
2023/07/13 07:33:10;;;;;;;16.25;4.18;;;18.40;85.90;;;;;;5006437;28;20156;-66
2023/07/13 07:35:36;;;;;;;12.05;2.92;;;18.50;86.50;;;;;;5002457;28;20430;-68
2023/07/13 07:38:02;;;;;;;13.82;3.25;;;18.70;85.70;;;;;;4996167;28;20022;-65
2023/07/13 07:40:27;;;;;;;11.52;3.17;;;19.00;85.50;;;;;;5007212;28;20040;-64
2023/07/13 07:42:53;;;;;;;12.57;3.08;;;18.80;84.60;;;;;;5001084;28;20102;-64
2023/07/13 07:45:19;;;;;;;12.85;3.05;;;18.70;85.10;;;;;;5002778;28;20108;-64
2023/07/13 07:47:44;;;;;;;10.70;2.45;;;19.00;85.80;;;;;;5004829;28;20129;-64
2023/07/13 07:50:10;;;;;;;13.55;3.05;;;19.10;84.80;;;;;;5002699;28;20068;-65
2023/07/13 07:52:36;;;;;;;9.48;2.75;;;19.20;85.20;;;;;;5003737;28;20084;-65
2023/07/13 07:55:02;;;;;;;15.52;3.53;;;19.10;84.00;;;;;;5001659;28;20096;-67
2023/07/13 07:57:27;;;;;;;11.40;2.70;;;19.20;83.20;;;;;;4999650;28;20324;-64
2023/07/13 07:59:52;;;;;;;11.82;3.17;;;19.00;82.20;;;;;;5004394;28;20459;-66
2023/07/13 08:02:18;;;;;;;11.38;2.92;;;19.50;83.70;;;;;;4998331;28;20088;-64
2023/07/13 08:04:43;;;;;;;25.00;3.28;;;19.70;83.20;;;;;;5002462;28;20052;-66
2023/07/13 08:07:09;;;;;;;12.68;3.17;;;19.50;82.30;;;;;;5001889;28;20048;-66
2023/07/13 08:09:34;;;;;;;12.98;3.63;;;19.50;82.80;;;;;;5002108;28;20022;-68
2023/07/13 08:12:00;;;;;;;11.98;2.97;;;19.90;82.00;;;;;;5005644;28;20065;-66
2023/07/13 08:14:25;;;;;;;10.40;2.83;;;19.90;81.70;;;;;;5011228;28;20350;-65
2023/07/13 08:16:51;;;;;;;11.65;2.75;;;20.10;80.50;;;;;;5004585;28;20037;-65
2023/07/13 08:19:16;;;;;;;8.73;2.38;;;20.00;80.10;;;;;;5005929;28;20094;-65
2023/07/13 08:21:43;;;;;;;9.52;2.25;;;19.80;80.30;;;;;;4996728;28;20034;-69
2023/07/13 08:24:09;;;;;;;13.73;2.92;;;19.60;81.30;;;;;;5003092;28;20030;-65
2023/07/13 08:26:34;;;;;;;10.65;2.20;;;19.80;82.00;;;;;;4999461;28;20036;-65
2023/07/13 08:29:00;;;;;;;10.82;2.10;;;19.70;81.00;;;;;;5002123;28;20026;-65
2023/07/13 08:31:25;;;;;;;8.60;2.40;;;19.40;81.80;;;;;;5003916;28;20342;-65
2023/07/13 08:33:51;;;;;;;11.10;2.65;;;19.40;81.00;;;;;;5011392;28;20466;-65
2023/07/13 08:36:16;;;;;;;7.13;2.20;;;19.40;81.20;;;;;;4999759;28;20132;-66
2023/07/13 08:38:42;;;;;;;9.15;2.65;;;19.30;80.90;;;;;;5007777;28;20415;-68
2023/07/13 08:41:16;;;;;;;8.70;2.33;;;19.90;80.10;;;;;;5003577;28;20100;-65
2023/07/13 08:43:48;;;;;;;6.38;2.00;;;20.30;79.00;;;;;;5001679;28;20042;-65
2023/07/13 08:46:25;;;;;;;13.32;2.63;;;20.60;78.70;;;;;;4997926;28;20079;-66
2023/07/13 08:48:58;;;;;;;6.07;2.05;;;20.70;75.40;;;;;;5000915;28;20144;-64
2023/07/13 08:51:28;;;;;;;5.25;1.98;;;21.00;74.60;;;;;;5005433;28;20028;-67
2023/07/13 08:54:03;;;;;;;6.68;2.28;;;21.20;73.40;;;;;;5009142;28;20384;-66
2023/07/13 08:56:30;;;;;;;8.40;1.98;;;21.60;73.00;;;;;;5003083;28;20683;-66
2023/07/13 08:58:58;;;;;;;7.75;2.47;;;21.20;73.20;;;;;;4998041;28;20084;-66
2023/07/13 09:01:51;;;;;;;11.15;2.10;;;20.90;73.20;;;;;;5000557;28;20065;-67
2023/07/13 09:04:24;;;;;;;6.20;1.75;;;20.90;75.80;;;;;;5008105;28;20101;-66
2023/07/13 09:07:04;;;;;;;7.25;2.08;;;20.70;74.00;;;;;;5001457;28;20871;-66
2023/07/13 09:09:52;;;;;;;8.75;2.40;;;20.90;73.90;;;;;;5004194;28;20319;-66
2023/07/13 09:12:49;;;;;;;7.72;1.77;;;21.60;74.60;;;;;;5005849;28;20045;-67
2023/07/13 09:15:24;;;;;;;7.75;1.88;;;21.50;74.30;;;;;;5001279;28;20034;-68
2023/07/13 09:17:52;;;;;;;8.48;2.20;;;21.60;70.90;;;;;;5000608;28;20088;-68
2023/07/13 09:20:30;;;;;;;6.22;1.85;;;22.10;70.90;;;;;;4999785;28;20119;-66
2023/07/13 09:22:59;;;;;;;10.48;1.92;;;22.60;70.30;;;;;;4995615;28;20258;-66
2023/07/13 09:25:33;;;;;;;6.55;2.10;;;22.50;70.50;;;;;;4999370;28;20157;-67
2023/07/13 09:28:23;;;;;;;8.98;1.90;;;22.80;69.20;;;;;;5006715;28;20026;-66
2023/07/13 09:30:58;;;;;;;5.30;1.58;;;22.10;70.20;;;;;;5003987;28;20160;-66
2023/07/13 09:33:23;;;;;;;5.07;1.75;;;21.60;70.90;;;;;;5006310;28;20082;-67
2023/07/13 09:35:49;;;;;;;3.65;1.67;;;21.80;69.30;;;;;;4998395;28;20044;-67
2023/07/13 09:38:22;;;;;;;5.30;1.83;;;21.50;71.00;;;;;;5020709;28;20017;-66
2023/07/13 09:41:14;;;;;;;7.75;2.10;;;21.70;69.10;;;;;;5009528;28;20034;-66
2023/07/13 09:44:10;;;;;;;7.50;2.33;;;22.50;70.40;;;;;;5003627;28;20059;-69
2023/07/13 09:46:36;;;;;;;9.65;2.22;;;22.50;68.30;;;;;;5006751;28;20033;-67
2023/07/13 09:49:02;;;;;;;8.02;2.13;;;22.80;68.30;;;;;;5009610;28;20034;-66
2023/07/13 09:51:27;;;;;;;7.45;2.22;;;22.50;65.20;;;;;;5003250;28;20125;-67
2023/07/13 09:53:54;;;;;;;5.35;1.70;;;22.90;62.20;;;;;;5008214;28;20045;-66
2023/07/13 09:56:26;;;;;;;9.65;2.00;;;23.30;64.30;;;;;;5007801;28;20117;-67
2023/07/13 09:58:53;;;;;;;6.32;2.13;;;23.10;64.20;;;;;;5007927;28;20029;-68
2023/07/13 10:01:36;;;;;;;5.63;1.80;;;22.60;63.90;;;;;;5004029;28;20033;-66
2023/07/13 10:04:01;;;;;;;6.63;1.70;;;22.00;66.00;;;;;;5010543;28;20057;-66
2023/07/13 10:06:27;;;;;;;12.20;2.08;;;21.60;67.40;;;;;;5002684;28;20053;-67
2023/07/13 10:08:55;;;;;;;6.82;1.80;;;21.90;67.70;;;;;;5006236;28;20056;-66
2023/07/13 10:11:29;;;;;;;7.35;1.80;;;22.30;65.50;;;;;;5009175;28;20054;-66
2023/07/13 10:14:01;;;;;;;7.38;1.75;;;22.00;65.70;;;;;;5005562;28;20049;-67
2023/07/13 10:16:32;;;;;;;6.72;1.90;;;21.90;66.20;;;;;;5006648;28;20493;-66
2023/07/13 10:19:01;;;;;;;6.03;1.92;;;21.50;65.20;;;;;;5010702;28;20053;-66
2023/07/13 10:21:31;;;;;;;6.07;1.80;;;21.30;66.20;;;;;;4997670;28;20524;-66
2023/07/13 10:24:13;;;;;;;;;;;21.00;67.40;;;;;;5004915;28;20382;-66
2023/07/13 10:26:46;;;;;;;4.95;2.08;;;20.90;68.50;;;;;;5000386;28;20529;-66
2023/07/13 10:29:15;;;;;;;4.80;1.70;;;21.10;69.60;;;;;;5000226;28;20128;-66
2023/07/13 10:31:41;;;;;;;6.90;2.25;;;21.10;68.50;;;;;;5010010;28;20043;-68
2023/07/13 10:34:10;;;;;;;7.78;2.00;;;21.50;67.90;;;;;;5007723;28;20021;-65
2023/07/13 10:36:45;;;;;;;5.10;1.77;;;21.50;66.90;;;;;;5002831;28;20053;-68
2023/07/13 10:39:22;;;;;;;7.95;2.40;;;21.70;67.20;;;;;;5006009;28;20480;-67
2023/07/13 10:41:53;;;;;;;6.85;1.90;;;22.20;66.50;;;;;;5007211;28;20030;-66
2023/07/13 10:44:31;;;;;;;3.65;1.88;;;22.70;62.40;;;;;;5006021;28;20348;-66
2023/07/13 10:47:00;;;;;;;3.55;1.92;;;22.90;61.90;;;;;;5015802;28;20022;-66
2023/07/13 10:49:28;;;;;;;6.13;2.00;;;23.00;60.80;;;;;;5008285;28;20025;-68
2023/07/13 10:51:53;;;;;;;5.30;1.73;;;23.10;59.50;;;;;;5003655;28;20037;-66
2023/07/13 10:54:22;;;;;;;5.22;1.80;;;23.30;58.80;;;;;;5007283;28;20030;-67
2023/07/13 10:56:50;;;;;;;3.92;1.48;;;23.00;60.20;;;;;;5007191;28;20419;-66
2023/07/13 10:59:25;;;;;;;5.65;1.77;;;22.40;60.50;;;;;;5006535;28;20711;-66
2023/07/13 11:02:09;;;;;;;5.38;1.85;;;21.90;61.40;;;;;;5011395;28;20089;-67
2023/07/13 11:04:47;;;;;;;4.43;1.63;;;21.70;62.50;;;;;;5007293;28;20033;-66
2023/07/13 11:07:22;;;;;;;5.20;1.83;;;21.50;63.10;;;;;;5006548;28;20026;-66
2023/07/13 11:09:53;;;;;;;5.15;1.65;;;21.40;63.90;;;;;;5003543;28;20163;-66
2023/07/13 11:12:22;;;;;;;8.93;1.70;;;21.70;63.70;;;;;;5005280;28;20037;-66
2023/07/13 11:14:57;;;;;;;8.55;1.83;;;22.00;61.90;;;;;;5002058;28;20129;-67
2023/07/13 11:17:34;;;;;;;6.00;2.25;;;22.00;63.30;;;;;;4999250;28;20026;-65
2023/07/13 11:20:11;;;;;;;3.78;1.67;;;21.90;63.60;;;;;;5005575;28;20372;-67
2023/07/13 11:22:50;;;;;;;8.38;1.80;;;21.80;63.70;;;;;;5001473;28;20607;-67
2023/07/13 11:25:34;;;;;;;3.60;1.65;;;21.50;63.60;;;;;;5000290;28;20034;-66
2023/07/13 11:28:11;;;;;;;4.63;1.63;;;22.40;62.80;;;;;;5005384;28;20025;-66
2023/07/13 11:30:42;;;;;;;2.10;1.40;;;22.30;61.60;;;;;;5001966;28;20030;-67
2023/07/13 11:33:12;;;;;;;5.75;1.75;;;22.30;63.10;;;;;;5001254;28;20021;-66
2023/07/13 11:35:49;;;;;;;8.88;2.20;;;22.40;62.30;;;;;;5006102;28;20030;-66
2023/07/13 11:38:37;;;;;;;3.97;1.70;;;23.40;59.40;;;;;;5002460;28;20109;-66
2023/07/13 11:41:15;;;;;;;6.97;1.83;;;22.70;60.40;;;;;;5008857;28;20077;-65
2023/07/13 11:43:42;;;;;;;5.40;1.55;;;22.50;61.40;;;;;;5003862;28;21074;-67
2023/07/13 11:46:25;;;;;;;5.43;1.67;;;22.20;61.60;;;;;;5004917;28;20018;-66
2023/07/13 11:48:52;;;;;;;6.38;1.90;;;21.80;62.10;;;;;;5005419;28;20030;-66
2023/07/13 11:51:33;;;;;;;5.72;1.65;;;21.80;63.60;;;;;;4992812;28;20080;-66
2023/07/13 11:54:04;;;;;;;6.25;1.83;;;21.80;62.30;;;;;;4998904;28;20026;-66
2023/07/13 11:56:32;;;;;;;3.45;1.50;;;21.60;63.10;;;;;;4997752;28;20034;-68
2023/07/13 11:59:03;;;;;;;5.55;1.70;;;21.30;63.40;;;;;;5006332;28;20088;-66
2023/07/13 12:01:32;;;;;;;6.20;1.80;;;21.10;66.20;;;;;;4998602;28;20080;-65
2023/07/13 12:04:03;;;;;;;6.43;2.35;;;20.20;73.90;;;;;;5002624;28;20334;-66
2023/07/13 12:06:39;;;;;;;9.60;2.40;;;18.50;83.90;;;;;;4996897;28;20318;-67
2023/07/13 12:09:18;;;;;;;7.30;2.50;;;17.10;84.20;;;;;;5007666;28;20049;-65
2023/07/13 12:11:44;;;;;;;2.38;1.33;;;16.30;88.50;;;;;;5004798;28;20029;-65
2023/07/13 12:14:16;;;;;;;4.32;1.90;;;15.80;88.90;;;;;;5011525;28;20042;-65
2023/07/13 12:16:43;;;;;;;10.63;2.63;;;15.80;90.10;;;;;;5005693;28;20359;-65
2023/07/13 12:19:24;;;;;;;8.27;3.10;;;15.90;90.90;;;;;;4999229;28;20057;-66
2023/07/13 12:21:56;;;;;;;5.93;2.83;;;15.80;91.40;;;;;;5001057;28;20050;-65
2023/07/13 12:24:23;;;;;;;8.35;3.10;;;16.00;92.10;;;;;;5001082;28;20056;-65
2023/07/13 12:26:54;;;;;;;7.25;3.25;;;16.30;91.70;;;;;;5005615;28;20050;-66
2023/07/13 12:29:20;;;;;;;;;;;16.60;90.80;;;;;;5002017;28;20034;-67
2023/07/13 12:31:48;;;;;;;9.77;3.42;;;16.80;91.10;;;;;;4999659;28;19927;-66
2023/07/13 12:34:15;;;;;;;5.65;3.08;;;16.90;90.80;;;;;;5006260;28;20116;-65
2023/07/13 12:36:51;;;;;;;8.68;3.33;;;16.90;90.00;;;;;;5004954;28;20366;-65
2023/07/13 12:39:20;;;;;;;5.93;2.63;;;16.90;89.90;;;;;;5003255;28;20045;-65
2023/07/13 12:41:47;;;;;;;6.35;2.92;;;16.80;88.80;;;;;;5004700;28;20026;-66